createdAt,value
2023-05-06T00:00:58.677Z,13.54
2023-05-06T00:03:25.338Z,13.63
2023-05-06T00:05:52.496Z,13.53
2023-05-06T00:08:19.028Z,13.60
2023-05-06T00:10:45.601Z,13.54
2023-05-06T00:13:12.881Z,13.57
2023-05-06T00:15:40.527Z,13.51
2023-05-06T00:18:07.186Z,13.57
2023-05-06T00:20:33.791Z,13.55
2023-05-06T00:23:00.576Z,13.53
2023-05-06T00:25:27.165Z,13.52
2023-05-06T00:27:53.605Z,13.49
2023-05-06T00:30:20.133Z,13.47
2023-05-06T00:32:46.599Z,13.39
2023-05-06T00:35:13.253Z,13.38
2023-05-06T00:37:39.705Z,13.46
2023-05-06T00:40:07.207Z,13.47
2023-05-06T00:42:34.473Z,13.50
2023-05-06T00:45:01.296Z,13.47
2023-05-06T00:47:27.899Z,13.51
2023-05-06T00:49:54.417Z,13.49
2023-05-06T00:52:21.005Z,13.31
2023-05-06T00:54:47.460Z,13.33
2023-05-06T00:57:14.165Z,13.34
2023-05-06T00:59:40.837Z,13.33
2023-05-06T01:02:07.421Z,13.51
2023-05-06T01:04:33.870Z,13.49
2023-05-06T01:07:07.181Z,13.51
2023-05-06T01:09:41.892Z,13.46
2023-05-06T01:12:30.661Z,13.36
2023-05-06T01:15:08.614Z,13.45
2023-05-06T01:17:45.895Z,13.36
2023-05-06T01:20:15.113Z,13.59
2023-05-06T01:22:41.764Z,13.40
2023-05-06T01:25:17.364Z,13.37
2023-05-06T01:27:43.913Z,13.39
2023-05-06T01:30:10.607Z,13.39
2023-05-06T01:32:58.412Z,13.38
2023-05-06T01:35:35.560Z,13.39
2023-05-06T01:38:20.674Z,13.39
2023-05-06T01:40:54.220Z,13.23
2023-05-06T01:43:22.030Z,13.36
2023-05-06T01:45:53.467Z,13.34
2023-05-06T01:48:26.444Z,13.37
2023-05-06T01:50:54.562Z,13.34
2023-05-06T01:53:21.317Z,13.24
2023-05-06T01:55:48.760Z,13.38
2023-05-06T01:58:16.565Z,13.37
2023-05-06T02:00:43.022Z,13.35
2023-05-06T02:03:09.589Z,13.38
2023-05-06T02:05:36.404Z,13.34
2023-05-06T02:08:03.687Z,13.34
2023-05-06T02:10:30.923Z,13.26
2023-05-06T02:13:02.130Z,13.33
2023-05-06T02:15:29.264Z,13.31
2023-05-06T02:17:57.213Z,13.31
2023-05-06T02:20:25.860Z,13.31
2023-05-06T02:22:52.384Z,13.17
2023-05-06T02:25:18.861Z,13.18
2023-05-06T02:27:45.592Z,13.01
2023-05-06T02:30:12.481Z,12.97
2023-05-06T02:32:39.059Z,12.86
2023-05-06T02:35:05.848Z,12.94
2023-05-06T02:37:32.863Z,12.79
2023-05-06T02:40:01.422Z,12.88
2023-05-06T02:42:27.954Z,12.79
2023-05-06T02:44:54.491Z,12.76
2023-05-06T02:47:21.038Z,12.65
2023-05-06T02:49:47.561Z,12.64
2023-05-06T02:52:14.008Z,12.61
2023-05-06T02:54:40.588Z,12.58
2023-05-06T02:57:07.030Z,12.68
2023-05-06T02:59:35.532Z,12.69
2023-05-06T03:02:02.089Z,12.70
2023-05-06T03:04:28.817Z,12.74
2023-05-06T03:06:55.838Z,12.65
2023-05-06T03:09:22.455Z,12.64
2023-05-06T03:11:49.514Z,12.69
2023-05-06T03:14:16.963Z,12.72
2023-05-06T03:16:43.789Z,12.75
2023-05-06T03:19:10.475Z,12.71
2023-05-06T03:21:37.428Z,12.78
2023-05-06T03:24:04.275Z,12.76
2023-05-06T03:26:31.251Z,12.78
2023-05-06T03:28:59.129Z,12.72
2023-05-06T03:31:26.007Z,12.81
2023-05-06T03:33:53.542Z,12.65
2023-05-06T03:36:21.978Z,12.70
2023-05-06T03:38:48.674Z,12.68
2023-05-06T03:41:15.130Z,12.60
2023-05-06T03:43:41.718Z,12.68
2023-05-06T03:46:08.689Z,12.73
2023-05-06T03:48:36.951Z,12.66
2023-05-06T03:51:07.009Z,12.74
2023-05-06T03:53:33.928Z,12.87
2023-05-06T03:56:02.253Z,12.80
2023-05-06T03:58:30.315Z,12.71
2023-05-06T04:01:00.128Z,12.78
2023-05-06T04:03:27.814Z,12.84
2023-05-06T04:05:54.846Z,12.82
2023-05-06T04:08:26.142Z,12.89
2023-05-06T04:10:55.358Z,12.95
2023-05-06T04:13:28.778Z,12.92
2023-05-06T04:15:58.452Z,12.85
2023-05-06T04:18:31.583Z,12.84
2023-05-06T04:21:03.493Z,12.91
2023-05-06T04:23:32.942Z,12.95
2023-05-06T04:25:59.696Z,12.92
2023-05-06T04:28:29.154Z,12.93
2023-05-06T04:30:58.871Z,12.94
2023-05-06T04:33:34.956Z,12.79
2023-05-06T04:36:04.956Z,13.03
2023-05-06T04:38:33.990Z,13.09
2023-05-06T04:41:00.603Z,13.16
2023-05-06T04:43:31.124Z,12.98
2023-05-06T04:46:06.522Z,13.02
2023-05-06T04:48:35.485Z,13.04
2023-05-06T04:51:05.430Z,13.03
2023-05-06T04:53:32.907Z,13.10
2023-05-06T04:56:02.241Z,13.19
2023-05-06T04:58:29.923Z,13.11
2023-05-06T05:00:58.273Z,13.24
2023-05-06T05:03:25.397Z,13.25
2023-05-06T05:05:54.578Z,13.25
2023-05-06T05:08:21.417Z,13.35
2023-05-06T05:10:48.867Z,13.41
2023-05-06T05:13:20.959Z,13.46
2023-05-06T05:15:49.412Z,13.51
2023-05-06T05:18:16.882Z,13.56
2023-05-06T05:20:45.512Z,13.54
2023-05-06T05:23:13.571Z,13.68
2023-05-06T05:25:42.670Z,13.76
2023-05-06T05:28:09.231Z,13.76
2023-05-06T05:30:37.107Z,13.92
2023-05-06T05:33:05.117Z,13.70
2023-05-06T05:35:31.933Z,13.89
2023-05-06T05:37:58.826Z,14.26
2023-05-06T05:40:26.003Z,14.10
2023-05-06T05:42:54.457Z,14.11
2023-05-06T05:45:27.362Z,14.12
2023-05-06T05:47:54.819Z,14.26
2023-05-06T05:50:22.545Z,14.09
2023-05-06T05:52:51.400Z,13.97
2023-05-06T05:55:18.822Z,14.09
2023-05-06T05:57:47.040Z,14.01
2023-05-06T06:00:15.498Z,14.08
2023-05-06T06:02:45.199Z,14.08
2023-05-06T06:05:15.104Z,14.20
2023-05-06T06:07:41.909Z,14.37
2023-05-06T06:10:08.831Z,14.30
2023-05-06T06:12:35.518Z,14.49
2023-05-06T06:15:04.029Z,14.69
2023-05-06T06:17:31.994Z,14.89
2023-05-06T06:19:59.649Z,15.01
2023-05-06T06:22:26.437Z,14.98
2023-05-06T06:24:56.155Z,15.14
2023-05-06T06:27:23.360Z,15.28
2023-05-06T06:29:51.342Z,15.08
2023-05-06T06:32:17.979Z,14.90
2023-05-06T06:34:44.563Z,15.25
2023-05-06T06:37:11.484Z,15.34
2023-05-06T06:39:38.397Z,14.99
2023-05-06T06:42:06.954Z,15.39
2023-05-06T06:44:49.447Z,15.27
2023-05-06T06:47:15.969Z,15.21
2023-05-06T06:49:42.434Z,15.12
2023-05-06T06:52:09.355Z,15.44
2023-05-06T06:54:37.944Z,14.95
2023-05-06T06:57:05.996Z,14.99
2023-05-06T06:59:32.583Z,14.47
2023-05-06T07:01:59.214Z,14.38
2023-05-06T07:04:25.891Z,14.47
2023-05-06T07:06:52.465Z,14.69
2023-05-06T07:09:18.945Z,15.10
2023-05-06T07:11:45.760Z,14.68
2023-05-06T07:14:13.320Z,14.70
2023-05-06T07:16:40.093Z,14.87
2023-05-06T07:19:06.712Z,15.27
2023-05-06T07:21:33.184Z,14.66
2023-05-06T07:24:00.128Z,14.99
2023-05-06T07:26:27.172Z,15.35
2023-05-06T07:28:53.857Z,14.94
2023-05-06T07:31:21.164Z,15.14
2023-05-06T07:33:48.135Z,15.76
2023-05-06T07:36:14.777Z,15.85
2023-05-06T07:38:41.574Z,16.22
2023-05-06T07:41:08.063Z,16.16
2023-05-06T07:43:34.518Z,15.92
2023-05-06T07:46:04.135Z,15.84
2023-05-06T07:48:31.049Z,16.73
2023-05-06T07:50:57.937Z,17.34
2023-05-06T07:53:24.611Z,17.01
2023-05-06T07:55:52.518Z,17.51
2023-05-06T07:58:19.189Z,17.25
2023-05-06T08:00:45.739Z,16.90
2023-05-06T08:03:12.262Z,17.21
2023-05-06T08:05:39.260Z,16.83
2023-05-06T08:08:05.790Z,17.89
2023-05-06T08:10:32.310Z,17.81
2023-05-06T08:12:58.938Z,17.60
2023-05-06T08:15:25.642Z,17.88
2023-05-06T08:17:52.721Z,18.04
2023-05-06T08:20:19.509Z,17.79
2023-05-06T08:22:46.028Z,17.50
2023-05-06T08:25:12.703Z,17.90
2023-05-06T08:27:39.774Z,17.84
2023-05-06T08:30:06.997Z,18.33
2023-05-06T08:32:33.603Z,19.08
2023-05-06T08:35:00.780Z,18.07
2023-05-06T08:37:27.651Z,18.05
2023-05-06T08:39:54.282Z,18.55
2023-05-06T08:42:21.960Z,18.69
2023-05-06T08:44:51.825Z,19.05
2023-05-06T08:47:20.842Z,19.35
2023-05-06T08:49:50.714Z,18.37
2023-05-06T08:52:18.703Z,17.86
2023-05-06T08:54:45.962Z,18.85
2023-05-06T08:57:13.397Z,19.57
2023-05-06T08:59:41.591Z,19.42
2023-05-06T09:02:08.513Z,19.72
2023-05-06T09:04:35.202Z,19.85
2023-05-06T09:07:01.767Z,19.75
2023-05-06T09:09:28.689Z,19.52
2023-05-06T09:11:57.444Z,20.51
2023-05-06T09:14:24.350Z,19.96
2023-05-06T09:16:55.160Z,19.97
2023-05-06T09:19:22.959Z,19.18
2023-05-06T09:21:50.906Z,19.48
2023-05-06T09:24:18.081Z,19.86
2023-05-06T09:26:46.648Z,20.08
2023-05-06T09:29:13.951Z,18.71
2023-05-06T09:31:45.879Z,18.48
2023-05-06T09:34:13.612Z,18.12
2023-05-06T09:36:40.249Z,18.31
2023-05-06T09:39:07.550Z,17.88
2023-05-06T09:41:34.243Z,18.02
2023-05-06T09:44:02.538Z,18.18
2023-05-06T09:46:30.007Z,18.86
2023-05-06T09:48:58.209Z,19.43
2023-05-06T09:51:27.917Z,19.06
2023-05-06T09:53:56.305Z,19.97
2023-05-06T09:56:23.772Z,20.24
2023-05-06T09:58:52.505Z,19.36
2023-05-06T10:01:32.557Z,20.11
2023-05-06T10:04:08.422Z,19.62
2023-05-06T10:06:37.221Z,19.91
2023-05-06T10:09:06.221Z,19.11
2023-05-06T10:11:32.989Z,19.04
2023-05-06T10:14:01.296Z,18.86
2023-05-06T10:16:29.099Z,19.11
2023-05-06T10:18:56.078Z,19.64
2023-05-06T10:21:27.668Z,19.37
2023-05-06T10:23:59.492Z,20.26
2023-05-06T10:26:29.602Z,19.57
2023-05-06T10:28:56.227Z,19.14
2023-05-06T10:31:22.798Z,19.09
2023-05-06T10:33:53.266Z,19.21
2023-05-06T10:36:25.265Z,19.41
2023-05-06T10:38:58.595Z,18.99
2023-05-06T10:41:28.090Z,19.14
2023-05-06T10:43:59.997Z,19.34
2023-05-06T10:46:29.985Z,18.84
2023-05-06T10:49:06.262Z,20.21
2023-05-06T10:51:39.417Z,20.47
2023-05-06T10:54:09.372Z,19.83
2023-05-06T10:56:36.646Z,19.70
2023-05-06T10:59:11.736Z,19.84
2023-05-06T11:01:40.145Z,19.93
2023-05-06T11:04:06.930Z,20.39
2023-05-06T11:06:35.673Z,19.54
2023-05-06T11:09:04.312Z,20.38
2023-05-06T11:12:04.583Z,21.10
2023-05-06T11:14:36.026Z,21.07
2023-05-06T11:17:08.998Z,20.34
2023-05-06T11:19:37.437Z,19.46
2023-05-06T11:22:05.851Z,18.94
2023-05-06T11:24:39.453Z,19.55
2023-05-06T11:27:06.950Z,19.53
2023-05-06T11:29:33.820Z,20.63
2023-05-06T11:32:00.353Z,20.69
2023-05-06T11:34:29.220Z,20.89
2023-05-06T11:37:04.393Z,21.18
2023-05-06T11:39:38.727Z,19.63
2023-05-06T11:42:07.259Z,21.05
2023-05-06T11:44:35.779Z,20.75
2023-05-06T11:47:05.788Z,20.71
2023-05-06T11:49:53.348Z,19.29
2023-05-06T11:52:20.942Z,20.52
2023-05-06T11:54:49.612Z,20.60
2023-05-06T11:57:16.777Z,20.24
2023-05-06T11:59:43.305Z,21.01
2023-05-06T12:02:10.634Z,20.44
2023-05-06T12:04:41.419Z,20.92
2023-05-06T12:07:09.359Z,21.07
2023-05-06T12:09:37.826Z,20.64
2023-05-06T12:12:05.181Z,20.68
2023-05-06T12:14:32.336Z,20.67
2023-05-06T12:16:59.149Z,21.38
2023-05-06T12:19:26.586Z,21.26
2023-05-06T12:21:53.141Z,21.54
2023-05-06T12:24:29.924Z,21.79
2023-05-06T12:26:56.599Z,21.73
2023-05-06T12:29:23.092Z,21.98
2023-05-06T12:31:49.626Z,22.26
2023-05-06T12:34:18.191Z,22.53
2023-05-06T12:36:46.972Z,21.89
2023-05-06T12:39:14.366Z,21.37
2023-05-06T12:41:43.613Z,21.22
2023-05-06T12:44:38.784Z,21.68
2023-05-06T12:47:20.084Z,22.54
2023-05-06T12:49:54.811Z,22.08
2023-05-06T12:52:27.560Z,21.86
2023-05-06T12:54:54.119Z,22.32
2023-05-06T12:57:21.480Z,22.62
2023-05-06T12:59:48.650Z,22.69
2023-05-06T13:02:16.150Z,22.29
2023-05-06T13:04:42.841Z,23.07
2023-05-06T13:07:09.330Z,22.20
2023-05-06T13:09:35.943Z,22.54
2023-05-06T13:12:04.674Z,22.94
2023-05-06T13:14:31.146Z,22.58
2023-05-06T13:17:01.008Z,22.03
2023-05-06T13:19:32.801Z,22.14
2023-05-06T13:22:00.329Z,21.83
2023-05-06T13:24:27.271Z,22.13
2023-05-06T13:26:53.799Z,22.00
2023-05-06T13:29:20.373Z,22.27
2023-05-06T13:31:46.903Z,21.66
2023-05-06T13:34:13.434Z,22.47
2023-05-06T13:36:39.942Z,22.67
2023-05-06T13:39:06.340Z,22.35
2023-05-06T13:41:32.998Z,22.13
2023-05-06T13:43:59.507Z,22.73
2023-05-06T13:46:27.288Z,23.49
2023-05-06T13:48:53.950Z,22.26
2023-05-06T13:51:20.580Z,22.11
2023-05-06T13:53:47.068Z,21.79
2023-05-06T13:56:13.726Z,21.57
2023-05-06T13:58:40.196Z,21.94
2023-05-06T14:01:07.469Z,22.18
2023-05-06T14:03:34.054Z,21.64
2023-05-06T14:06:01.245Z,22.10
2023-05-06T14:08:27.765Z,22.03
2023-05-06T14:10:54.253Z,21.44
2023-05-06T14:13:20.681Z,22.81
2023-05-06T14:15:47.382Z,21.99
2023-05-06T14:18:13.928Z,21.84
2023-05-06T14:20:40.536Z,22.12
2023-05-06T14:23:07.072Z,22.33
2023-05-06T14:25:33.694Z,21.77
2023-05-06T14:28:00.252Z,21.62
2023-05-06T14:30:26.813Z,21.24
2023-05-06T14:32:53.280Z,21.89
2023-05-06T14:35:19.871Z,20.67
2023-05-06T14:37:46.456Z,20.65
2023-05-06T14:40:13.246Z,21.31
2023-05-06T14:42:40.297Z,20.73
2023-05-06T14:45:07.453Z,20.69
2023-05-06T14:47:34.206Z,20.21
2023-05-06T14:50:00.897Z,20.17
2023-05-06T14:52:27.661Z,20.32
2023-05-06T14:54:54.052Z,19.77
2023-05-06T14:57:20.663Z,19.56
2023-05-06T14:59:47.254Z,19.64
2023-05-06T15:02:13.827Z,20.02
2023-05-06T15:04:40.378Z,19.82
2023-05-06T15:07:08.370Z,20.62
2023-05-06T15:09:34.965Z,20.09
2023-05-06T15:12:02.369Z,20.12
2023-05-06T15:14:28.963Z,19.98
2023-05-06T15:16:57.273Z,20.41
2023-05-06T15:19:24.323Z,20.34
2023-05-06T15:21:51.028Z,20.68
2023-05-06T15:24:17.678Z,20.49
2023-05-06T15:26:44.654Z,20.97
2023-05-06T15:29:11.178Z,20.81
2023-05-06T15:31:40.987Z,21.16
2023-05-06T15:34:09.551Z,21.21
2023-05-06T15:36:36.500Z,21.02
2023-05-06T15:39:03.301Z,21.46
2023-05-06T15:41:34.716Z,21.17
2023-05-06T15:44:03.397Z,21.49
2023-05-06T15:46:31.219Z,20.84
2023-05-06T15:49:20.974Z,20.17
2023-05-06T15:51:44.672Z,20.51
2023-05-06T15:54:11.328Z,20.11
2023-05-06T15:56:41.117Z,20.27
2023-05-06T15:59:08.632Z,20.44
2023-05-06T16:01:53.849Z,20.37
2023-05-06T16:04:22.408Z,20.78
2023-05-06T16:06:49.495Z,20.86
2023-05-06T16:09:16.046Z,21.20
2023-05-06T16:11:42.567Z,20.55
2023-05-06T16:14:08.979Z,20.70
2023-05-06T16:16:35.951Z,20.55
2023-05-06T16:19:02.589Z,20.50
2023-05-06T16:21:29.067Z,20.56
2023-05-06T16:23:55.956Z,20.86
2023-05-06T16:26:22.474Z,20.41
2023-05-06T16:28:48.854Z,20.42
2023-05-06T16:31:15.528Z,20.63
2023-05-06T16:33:42.101Z,20.51
2023-05-06T16:36:08.929Z,20.51
2023-05-06T16:38:35.460Z,20.45
2023-05-06T16:41:02.264Z,20.43
2023-05-06T16:43:28.709Z,20.55
2023-05-06T16:45:55.325Z,20.45
2023-05-06T16:48:21.950Z,20.47
2023-05-06T16:50:48.602Z,20.73
2023-05-06T16:53:17.262Z,20.63
2023-05-06T16:55:48.833Z,20.47
2023-05-06T16:58:15.807Z,20.33
2023-05-06T17:00:42.465Z,20.34
2023-05-06T17:03:09.129Z,20.20
2023-05-06T17:05:36.463Z,20.01
2023-05-06T17:08:06.805Z,19.95
2023-05-06T17:10:33.695Z,19.87
2023-05-06T17:13:00.308Z,19.68
2023-05-06T17:15:26.844Z,19.61
2023-05-06T17:17:53.536Z,19.80
2023-05-06T17:20:20.336Z,19.59
2023-05-06T17:22:46.935Z,19.55
2023-05-06T17:25:13.691Z,19.54
2023-05-06T17:27:40.357Z,19.29
2023-05-06T17:30:09.670Z,19.46
2023-05-06T17:32:36.516Z,19.27
2023-05-06T17:35:03.360Z,19.44
2023-05-06T17:37:31.241Z,19.14
2023-05-06T17:39:57.909Z,18.87
2023-05-06T17:42:24.379Z,18.89
2023-05-06T17:44:51.106Z,18.94
2023-05-06T17:47:17.741Z,18.95
2023-05-06T17:49:44.355Z,18.86
2023-05-06T17:52:10.939Z,18.81
2023-05-06T17:54:38.245Z,18.58
2023-05-06T17:57:04.728Z,18.57
2023-05-06T17:59:31.281Z,18.64
2023-05-06T18:01:57.939Z,18.24
2023-05-06T18:04:24.423Z,18.24
2023-05-06T18:06:50.954Z,18.19
2023-05-06T18:09:17.494Z,18.05
2023-05-06T18:11:43.953Z,18.02
2023-05-06T18:14:11.077Z,17.61
2023-05-06T18:16:37.924Z,17.55
2023-05-06T18:19:05.179Z,17.30
2023-05-06T18:21:33.921Z,17.16
2023-05-06T18:24:10.371Z,17.02
2023-05-06T18:26:45.338Z,16.64
2023-05-06T18:29:12.673Z,16.55
2023-05-06T18:31:39.429Z,16.56
2023-05-06T18:34:06.038Z,16.48
2023-05-06T18:36:32.620Z,16.40
2023-05-06T18:38:59.126Z,16.20
2023-05-06T18:41:25.713Z,16.33
2023-05-06T18:43:52.280Z,16.12
2023-05-06T18:46:18.758Z,16.07
2023-05-06T18:48:45.377Z,16.06
2023-05-06T18:51:17.966Z,16.00
2023-05-06T18:53:44.803Z,15.82
2023-05-06T18:56:11.969Z,15.67
2023-05-06T18:58:39.387Z,15.52
2023-05-06T19:01:10.727Z,15.34
2023-05-06T19:03:38.428Z,15.33
2023-05-06T19:06:09.089Z,15.41
2023-05-06T19:08:37.244Z,15.32
2023-05-06T19:11:03.974Z,15.21
2023-05-06T19:13:30.972Z,15.16
2023-05-06T19:15:57.496Z,15.11
2023-05-06T19:18:23.966Z,15.00
2023-05-06T19:20:50.709Z,14.91
2023-05-06T19:23:17.221Z,14.80
2023-05-06T19:25:43.688Z,14.85
2023-05-06T19:28:10.143Z,14.69
2023-05-06T19:30:36.781Z,14.74
2023-05-06T19:33:04.146Z,14.75
2023-05-06T19:35:30.771Z,14.57
2023-05-06T19:37:57.773Z,14.52
2023-05-06T19:40:24.348Z,14.48
2023-05-06T19:42:50.721Z,14.33
2023-05-06T19:45:19.202Z,14.30
2023-05-06T19:47:46.463Z,14.37
2023-05-06T19:50:13.364Z,14.24
2023-05-06T19:52:40.475Z,13.90
2023-05-06T19:55:07.657Z,14.18
2023-05-06T19:57:34.180Z,14.10
2023-05-06T20:00:05.104Z,14.10
2023-05-06T20:02:32.601Z,13.94
2023-05-06T20:05:00.782Z,13.88
2023-05-06T20:07:27.570Z,13.95
2023-05-06T20:09:55.860Z,13.66
2023-05-06T20:12:23.637Z,13.81
2023-05-06T20:14:50.213Z,13.84
2023-05-06T20:17:16.702Z,13.85
2023-05-06T20:19:44.908Z,13.80
2023-05-06T20:22:11.796Z,13.59
2023-05-06T20:24:38.336Z,13.55
2023-05-06T20:27:04.845Z,13.41
2023-05-06T20:29:31.470Z,13.30
2023-05-06T20:31:58.367Z,13.24
2023-05-06T20:34:24.892Z,13.33
2023-05-06T20:36:51.510Z,13.36
2023-05-06T20:39:18.055Z,13.24
2023-05-06T20:41:44.594Z,13.30
2023-05-06T20:44:11.072Z,13.28
2023-05-06T20:46:37.530Z,13.34
2023-05-06T20:49:04.063Z,13.23
2023-05-06T20:51:30.590Z,13.30
2023-05-06T20:53:58.944Z,13.19
2023-05-06T20:56:27.772Z,13.26
2023-05-06T20:58:55.692Z,13.17
2023-05-06T21:01:23.627Z,13.17
2023-05-06T21:03:50.487Z,13.23
2023-05-06T21:06:18.504Z,13.06
2023-05-06T21:08:46.220Z,12.90
2023-05-06T21:11:13.357Z,12.93
2023-05-06T21:13:40.247Z,12.68
2023-05-06T21:16:06.784Z,12.70
2023-05-06T21:18:33.302Z,12.95
2023-05-06T21:20:59.933Z,12.85
2023-05-06T21:23:27.627Z,12.90
2023-05-06T21:25:54.223Z,12.92
2023-05-06T21:28:20.641Z,12.93
2023-05-06T21:30:47.210Z,12.83
2023-05-06T21:33:13.655Z,12.82
2023-05-06T21:35:40.253Z,12.65
2023-05-06T21:38:07.083Z,12.69
2023-05-06T21:40:33.579Z,12.57
2023-05-06T21:42:59.986Z,12.62
2023-05-06T21:45:26.759Z,12.68
2023-05-06T21:47:53.413Z,12.67
2023-05-06T21:50:20.274Z,12.38
2023-05-06T21:52:46.832Z,12.23
2023-05-06T21:55:13.585Z,12.26
2023-05-06T21:57:40.507Z,12.33
2023-05-06T22:00:11.810Z,12.25
2023-05-06T22:18:02.704Z,11.48
2023-05-06T22:20:30.591Z,11.56
2023-05-06T22:22:57.187Z,11.63
2023-05-06T22:25:23.708Z,11.73
2023-05-06T22:27:50.303Z,11.63
2023-05-06T22:30:17.117Z,11.72
2023-05-06T22:32:43.875Z,11.74
2023-05-06T22:35:10.683Z,11.80
2023-05-06T22:37:37.398Z,11.79
2023-05-06T22:40:04.318Z,11.80
2023-05-06T22:42:30.903Z,11.79
2023-05-06T22:44:57.350Z,11.73
2023-05-06T22:47:24.117Z,11.61
2023-05-06T22:49:50.744Z,11.63
2023-05-06T22:52:18.990Z,11.60
2023-05-06T22:54:45.557Z,11.56
2023-05-06T22:57:12.230Z,11.51
2023-05-06T22:59:38.818Z,11.53
2023-05-06T23:02:05.277Z,11.51
2023-05-06T23:04:31.830Z,11.52
2023-05-06T23:06:58.264Z,11.44
2023-05-06T23:09:24.809Z,11.39
2023-05-06T23:11:51.267Z,11.33
2023-05-06T23:14:17.859Z,11.28
2023-05-06T23:16:44.383Z,11.19
2023-05-06T23:19:11.030Z,11.06
2023-05-06T23:21:37.541Z,10.68
2023-05-06T23:24:04.291Z,10.94
2023-05-06T23:26:30.818Z,11.12
2023-05-06T23:28:57.311Z,11.03
2023-05-06T23:31:23.784Z,11.15
2023-05-06T23:33:50.236Z,10.92
2023-05-06T23:36:17.432Z,10.82
2023-05-06T23:38:44.243Z,10.77
2023-05-06T23:41:12.049Z,10.87
2023-05-06T23:43:38.502Z,10.90
2023-05-06T23:46:05.004Z,10.92
2023-05-06T23:48:31.378Z,10.97
2023-05-06T23:50:57.853Z,10.52
2023-05-06T23:53:24.363Z,10.62
2023-05-06T23:55:50.740Z,10.77
2023-05-06T23:58:17.386Z,10.78
